createdAt,value
2018-09-23T00:00:20.422Z,3.57
2018-09-23T00:02:48.903Z,5.67
2018-09-23T00:05:17.468Z,4.13
2018-09-23T00:07:46.338Z,4.10
2018-09-23T00:10:14.775Z,3.50
2018-09-23T00:12:43.246Z,5.07
2018-09-23T00:15:11.742Z,5.93
2018-09-23T00:17:40.646Z,8.07
2018-09-23T00:20:09.192Z,4.13
2018-09-23T00:22:37.920Z,4.17
2018-09-23T00:25:07.099Z,5.03
2018-09-23T00:27:35.718Z,3.83
2018-09-23T00:30:04.599Z,6.93
2018-09-23T00:32:33.084Z,4.50
2018-09-23T00:35:01.765Z,3.77
2018-09-23T00:37:30.229Z,7.77
2018-09-23T00:39:58.706Z,4.17
2018-09-23T00:42:27.973Z,4.60
2018-09-23T00:44:56.374Z,5.63
2018-09-23T00:47:24.911Z,4.77
2018-09-23T00:49:53.351Z,4.60
2018-09-23T00:52:22.082Z,4.47
2018-09-23T00:54:50.515Z,3.53
2018-09-23T00:57:19.326Z,6.27
2018-09-23T00:59:47.748Z,4.17
2018-09-23T01:02:16.200Z,3.60
2018-09-23T01:04:45.063Z,3.40
2018-09-23T01:07:13.914Z,6.13
2018-09-23T01:09:42.383Z,4.17
2018-09-23T01:12:10.925Z,5.67
2018-09-23T01:14:39.426Z,3.13
2018-09-23T01:17:07.874Z,5.13
2018-09-23T01:19:36.270Z,3.93
2018-09-23T01:22:04.815Z,3.93
2018-09-23T01:24:33.305Z,5.83
2018-09-23T01:27:02.083Z,6.60
2018-09-23T01:29:30.553Z,3.73
2018-09-23T01:32:00.078Z,6.13
2018-09-23T01:34:28.687Z,5.93
2018-09-23T01:36:57.139Z,3.40
2018-09-23T01:39:26.243Z,4.57
2018-09-23T01:41:54.631Z,4.60
2018-09-23T01:44:23.522Z,5.30
2018-09-23T01:46:52.058Z,5.23
2018-09-23T01:49:20.516Z,5.70
2018-09-23T01:51:48.893Z,3.93
2018-09-23T01:54:17.345Z,7.00
2018-09-23T01:56:45.797Z,6.00
2018-09-23T01:59:14.204Z,5.40
2018-09-23T02:01:42.776Z,6.33
2018-09-23T02:04:11.231Z,5.37
2018-09-23T02:06:39.684Z,5.33
2018-09-23T02:09:08.813Z,4.40
2018-09-23T02:11:37.231Z,3.77
2018-09-23T02:14:05.794Z,6.83
2018-09-23T02:16:34.281Z,3.97
2018-09-23T02:19:02.763Z,4.70
2018-09-23T02:21:31.303Z,4.53
2018-09-23T02:23:59.922Z,6.47
2018-09-23T02:26:28.426Z,4.63
2018-09-23T02:28:57.022Z,7.93
2018-09-23T02:31:25.567Z,5.80
2018-09-23T02:33:57.246Z,4.40
2018-09-23T02:36:26.226Z,6.47
2018-09-23T02:38:54.753Z,8.60
2018-09-23T02:41:23.379Z,4.60
2018-09-23T02:43:51.804Z,5.03
2018-09-23T02:46:20.238Z,4.77
2018-09-23T02:48:48.813Z,5.50
2018-09-23T02:51:17.327Z,5.67
2018-09-23T02:53:45.807Z,6.37
2018-09-23T02:56:14.809Z,4.77
2018-09-23T02:58:43.199Z,9.50
2018-09-23T03:01:11.667Z,7.67
2018-09-23T03:03:40.766Z,7.20
2018-09-23T03:06:09.243Z,4.23
2018-09-23T03:08:37.726Z,6.23
2018-09-23T03:11:06.116Z,5.57
2018-09-23T03:13:34.650Z,3.90
2018-09-23T03:16:03.158Z,5.30
2018-09-23T03:18:31.542Z,5.33
2018-09-23T03:21:00.462Z,4.23
2018-09-23T03:23:28.961Z,5.40
2018-09-23T03:25:57.437Z,7.63
2018-09-23T03:28:26.038Z,4.40
2018-09-23T03:30:54.539Z,6.87
2018-09-23T03:33:22.992Z,4.70
2018-09-23T03:35:51.859Z,4.17
2018-09-23T03:38:20.389Z,4.70
2018-09-23T03:40:48.770Z,5.90
2018-09-23T03:43:17.329Z,4.83
2018-09-23T03:45:45.843Z,6.43
2018-09-23T03:48:14.245Z,7.50
2018-09-23T03:50:42.651Z,6.20
2018-09-23T03:53:11.095Z,4.87
2018-09-23T03:55:39.682Z,5.17
2018-09-23T03:58:08.921Z,4.10
2018-09-23T04:00:37.580Z,7.27
2018-09-23T04:03:06.408Z,4.83
2018-09-23T04:05:34.987Z,5.33
2018-09-23T04:08:03.444Z,5.33
2018-09-23T04:10:31.998Z,6.33
2018-09-23T04:13:00.479Z,3.67
2018-09-23T04:15:29.546Z,6.03
2018-09-23T04:17:57.960Z,3.80
2018-09-23T04:20:26.535Z,5.83
2018-09-23T04:22:55.185Z,4.77
2018-09-23T04:25:23.618Z,3.87
2018-09-23T04:27:52.133Z,6.10
2018-09-23T04:30:21.776Z,6.53
2018-09-23T04:32:51.027Z,6.43
2018-09-23T04:35:19.868Z,8.60
2018-09-23T04:37:48.834Z,6.27
2018-09-23T04:40:17.349Z,4.77
2018-09-23T04:42:45.775Z,6.50
2018-09-23T04:45:14.237Z,5.67
2018-09-23T04:47:42.701Z,6.30
2018-09-23T04:50:11.450Z,7.77
2018-09-23T04:52:39.983Z,4.83
2018-09-23T04:55:08.476Z,7.43
2018-09-23T04:57:36.954Z,8.40
2018-09-23T05:00:05.496Z,7.17
2018-09-23T05:02:34.266Z,9.37
2018-09-23T05:05:02.795Z,7.87
2018-09-23T05:07:31.386Z,8.10
2018-09-23T05:09:59.940Z,6.13
2018-09-23T05:12:28.491Z,6.73
2018-09-23T05:14:57.317Z,4.90
2018-09-23T05:17:25.779Z,5.60
2018-09-23T05:19:54.748Z,5.07
2018-09-23T05:22:23.251Z,5.83
2018-09-23T05:24:52.319Z,4.97
2018-09-23T05:27:20.767Z,7.33
2018-09-23T05:29:49.241Z,6.10
2018-09-23T05:32:17.741Z,4.87
2018-09-23T05:34:46.232Z,5.03
2018-09-23T05:37:14.676Z,7.40
2018-09-23T05:39:43.091Z,9.90
2018-09-23T05:42:11.643Z,9.57
2018-09-23T05:44:40.092Z,5.00
2018-09-23T05:47:08.580Z,8.13
2018-09-23T05:49:37.113Z,6.63
2018-09-23T05:52:06.207Z,5.33
2018-09-23T05:54:34.623Z,5.97
2018-09-23T05:57:03.030Z,5.70
2018-09-23T05:59:31.731Z,7.37
2018-09-23T06:02:00.286Z,5.23
2018-09-23T06:04:28.863Z,7.00
2018-09-23T06:06:58.048Z,6.07
2018-09-23T06:09:26.998Z,6.80
2018-09-23T06:11:55.629Z,5.40
2018-09-23T06:14:24.241Z,8.60
2018-09-23T06:16:52.639Z,8.47
2018-09-23T06:19:21.189Z,4.43
2018-09-23T06:21:49.706Z,10.23
2018-09-23T06:24:18.745Z,6.37
2018-09-23T06:26:47.137Z,7.37
2018-09-23T06:29:15.820Z,7.27
2018-09-23T06:31:48.990Z,6.27
2018-09-23T06:34:21.118Z,7.93
2018-09-23T06:36:49.826Z,6.73
2018-09-23T06:39:20.889Z,4.60
2018-09-23T06:41:49.607Z,5.20
2018-09-23T06:44:18.275Z,7.70
2018-09-23T06:46:46.822Z,4.97
2018-09-23T06:49:15.311Z,4.20
2018-09-23T06:51:44.906Z,9.70
2018-09-23T06:54:14.357Z,5.00
2018-09-23T06:56:43.126Z,9.80
2018-09-23T06:59:11.699Z,5.83
2018-09-23T07:01:40.332Z,7.03
2018-09-23T07:04:09.866Z,5.33
2018-09-23T07:06:38.385Z,7.00
2018-09-23T07:09:07.740Z,5.67
2018-09-23T07:11:36.322Z,5.40
2018-09-23T07:14:04.798Z,6.03
2018-09-23T07:16:33.739Z,6.50
2018-09-23T07:19:02.353Z,6.53
2018-09-23T07:21:30.892Z,5.43
2018-09-23T07:23:59.527Z,8.67
2018-09-23T07:26:27.939Z,5.07
2018-09-23T07:28:56.529Z,5.73
2018-09-23T07:31:25.296Z,7.00
2018-09-23T07:33:54.067Z,4.93
2018-09-23T07:36:23.110Z,8.20
2018-09-23T07:38:51.808Z,8.77
2018-09-23T07:41:20.517Z,5.70
2018-09-23T07:43:49.331Z,6.23
2018-09-23T07:46:17.820Z,6.53
2018-09-23T07:48:46.352Z,5.10
2018-09-23T07:51:14.977Z,6.70
2018-09-23T07:53:44.561Z,6.80
2018-09-23T07:56:13.800Z,6.27
2018-09-23T07:58:44.244Z,6.03
2018-09-23T08:01:13.424Z,8.60
2018-09-23T08:03:42.331Z,6.53
2018-09-23T08:06:11.304Z,5.90
2018-09-23T08:08:40.280Z,5.10
2018-09-23T08:11:10.007Z,8.73
2018-09-23T08:13:38.807Z,6.50
2018-09-23T08:16:07.489Z,7.33
2018-09-23T08:18:36.176Z,6.30
2018-09-23T08:21:04.794Z,5.77
2018-09-23T08:23:34.115Z,4.90
2018-09-23T08:26:02.725Z,7.87
2018-09-23T08:28:31.259Z,4.80
2018-09-23T08:30:59.725Z,5.10
2018-09-23T08:33:28.958Z,5.93
2018-09-23T08:35:57.689Z,6.37
2018-09-23T08:38:26.951Z,6.00
2018-09-23T08:40:56.496Z,6.83
2018-09-23T08:43:26.339Z,7.33
2018-09-23T08:45:55.816Z,6.90
2018-09-23T08:48:25.458Z,6.13
2018-09-23T08:50:54.694Z,5.53
2018-09-23T08:53:24.145Z,6.10
2018-09-23T08:55:53.143Z,8.80
2018-09-23T08:58:22.224Z,9.40
2018-09-23T09:00:51.262Z,6.60
2018-09-23T09:03:20.932Z,6.13
2018-09-23T09:05:50.721Z,5.77
2018-09-23T09:08:19.823Z,8.57
2018-09-23T09:10:49.009Z,6.57
2018-09-23T09:13:18.207Z,5.07
2018-09-23T09:15:48.658Z,5.27
2018-09-23T09:18:18.195Z,5.93
2018-09-23T09:20:47.180Z,8.77
2018-09-23T09:23:16.549Z,7.53
2018-09-23T09:25:46.290Z,5.30
2018-09-23T09:28:15.257Z,5.20
2018-09-23T09:30:44.491Z,6.67
2018-09-23T09:33:13.687Z,6.83
2018-09-23T09:35:42.971Z,5.37
2018-09-23T09:38:11.942Z,5.23
2018-09-23T09:40:41.542Z,5.30
2018-09-23T09:43:10.648Z,7.73
2018-09-23T09:45:39.766Z,9.43
2018-09-23T09:48:11.631Z,5.73
2018-09-23T09:50:41.311Z,5.60
2018-09-23T09:53:10.909Z,5.10
2018-09-23T09:55:40.296Z,8.57
2018-09-23T09:58:09.896Z,6.03
2018-09-23T10:00:38.825Z,6.40
2018-09-23T10:03:08.753Z,6.53
2018-09-23T10:05:38.027Z,9.20
2018-09-23T10:08:07.213Z,5.60
2018-09-23T10:10:36.024Z,5.13
2018-09-23T10:13:05.394Z,7.07
2018-09-23T10:15:34.635Z,6.87
2018-09-23T10:18:03.784Z,6.57
2018-09-23T10:20:33.258Z,9.87
2018-09-23T10:23:02.996Z,5.80
2018-09-23T10:25:33.507Z,5.73
2018-09-23T10:28:02.331Z,7.57
2018-09-23T10:30:31.599Z,8.77
2018-09-23T10:33:00.399Z,7.70
2018-09-23T10:35:29.272Z,6.47
2018-09-23T10:37:57.982Z,6.33
2018-09-23T10:40:27.045Z,6.07
2018-09-23T10:42:55.941Z,5.37
2018-09-23T10:45:24.758Z,7.63
2018-09-23T10:47:53.878Z,5.87
2018-09-23T10:50:23.253Z,7.07
2018-09-23T10:52:52.933Z,7.37
2018-09-23T10:55:21.841Z,8.13
2018-09-23T10:57:50.711Z,10.23
2018-09-23T11:00:19.873Z,9.20
2018-09-23T11:02:49.526Z,6.57
2018-09-23T11:05:19.151Z,9.90
2018-09-23T11:07:48.525Z,9.53
2018-09-23T11:10:17.610Z,11.17
2018-09-23T11:12:46.333Z,7.90
2018-09-23T11:15:15.402Z,8.47
2018-09-23T11:17:44.031Z,9.90
2018-09-23T11:20:12.670Z,10.70
2018-09-23T11:22:43.314Z,8.47
2018-09-23T11:25:12.243Z,7.87
2018-09-23T11:27:41.498Z,7.53
2018-09-23T11:30:10.182Z,11.00
2018-09-23T11:32:39.108Z,10.40
2018-09-23T11:35:08.235Z,9.90
2018-09-23T11:37:37.342Z,9.83
2018-09-23T11:40:06.522Z,8.23
2018-09-23T11:42:35.285Z,10.00
2018-09-23T11:45:04.247Z,9.33
2018-09-23T11:47:33.324Z,9.77
2018-09-23T11:50:02.328Z,7.13
2018-09-23T11:52:31.301Z,7.77
2018-09-23T11:55:00.101Z,13.20
2018-09-23T11:57:29.101Z,14.63
2018-09-23T11:59:57.987Z,9.30
2018-09-23T12:02:27.119Z,8.70
2018-09-23T12:04:56.381Z,7.90
2018-09-23T12:07:25.379Z,11.23
2018-09-23T12:09:54.251Z,10.80
2018-09-23T12:12:22.888Z,11.93
2018-09-23T12:14:52.443Z,12.93
2018-09-23T12:17:22.672Z,13.60
2018-09-23T12:19:51.655Z,10.50
2018-09-23T12:22:20.761Z,11.97
2018-09-23T12:24:49.950Z,8.03
2018-09-23T12:27:19.929Z,9.13
2018-09-23T12:29:51.421Z,20.30
2018-09-23T12:32:21.958Z,12.80
2018-09-23T12:34:50.971Z,14.13
2018-09-23T12:37:21.096Z,9.63
2018-09-23T12:39:50.403Z,9.47
2018-09-23T12:42:26.197Z,10.10
2018-09-23T12:44:56.842Z,16.80
2018-09-23T12:47:25.928Z,15.63
2018-09-23T12:49:55.227Z,17.30
2018-09-23T12:52:24.647Z,15.03
2018-09-23T12:54:53.713Z,13.93
2018-09-23T12:57:22.665Z,13.43
2018-09-23T12:59:51.957Z,10.67
2018-09-23T13:02:21.641Z,14.00
2018-09-23T13:04:51.445Z,12.67
2018-09-23T13:07:21.854Z,9.13
2018-09-23T13:09:51.695Z,14.70
2018-09-23T13:12:20.299Z,16.83
2018-09-23T13:14:49.090Z,13.63
2018-09-23T13:17:17.913Z,17.07
2018-09-23T13:19:46.823Z,16.53
2018-09-23T13:22:15.907Z,14.77
2018-09-23T13:24:44.606Z,14.10
2018-09-23T13:27:13.903Z,17.93
2018-09-23T13:29:43.703Z,11.93
2018-09-23T13:32:13.049Z,15.30
2018-09-23T13:34:41.943Z,14.30
2018-09-23T13:37:10.773Z,13.80
2018-09-23T13:39:39.819Z,14.23
2018-09-23T13:42:08.846Z,19.50
2018-09-23T13:44:37.810Z,16.63
2018-09-23T13:47:07.705Z,13.90
2018-09-23T13:49:37.011Z,18.07
2018-09-23T13:52:06.051Z,14.43
2018-09-23T13:54:35.353Z,13.80
2018-09-23T13:57:04.762Z,17.63
2018-09-23T13:59:33.775Z,16.27
2018-09-23T14:02:02.654Z,15.10
2018-09-23T14:04:32.551Z,14.10
2018-09-23T14:07:02.061Z,12.23
2018-09-23T14:09:31.563Z,15.67
2018-09-23T14:12:00.746Z,14.87
2018-09-23T14:14:29.765Z,15.73
2018-09-23T14:16:58.782Z,14.90
2018-09-23T14:19:27.772Z,15.17
2018-09-23T14:21:57.967Z,16.73
2018-09-23T14:24:28.128Z,13.03
2018-09-23T14:26:57.014Z,15.57
2018-09-23T14:29:26.176Z,13.57
2018-09-23T14:31:55.672Z,13.97
2018-09-23T14:34:24.297Z,14.03
2018-09-23T14:36:53.270Z,13.17
2018-09-23T14:39:22.661Z,12.00
2018-09-23T14:41:51.403Z,15.80
2018-09-23T14:44:20.740Z,15.10
2018-09-23T14:46:49.346Z,17.07
2018-09-23T14:49:18.825Z,17.23
2018-09-23T14:51:48.015Z,16.20
2018-09-23T14:54:18.013Z,15.27
2018-09-23T14:56:47.850Z,19.20
2018-09-23T14:59:18.051Z,15.87
2018-09-23T15:01:47.573Z,19.07
2018-09-23T15:04:17.558Z,18.53
2018-09-23T15:06:47.199Z,13.60
2018-09-23T15:09:15.708Z,13.80
2018-09-23T15:11:45.115Z,16.60
2018-09-23T15:14:14.541Z,13.67
2018-09-23T15:16:43.746Z,13.73
2018-09-23T15:19:12.455Z,14.37
2018-09-23T15:21:41.545Z,14.47
2018-09-23T15:24:10.274Z,13.73
2018-09-23T15:26:38.832Z,12.73
2018-09-23T15:29:07.899Z,10.80
2018-09-23T15:31:36.408Z,10.37
2018-09-23T15:34:04.929Z,12.33
2018-09-23T15:36:33.540Z,13.80
2018-09-23T15:39:02.088Z,15.83
2018-09-23T15:41:30.524Z,13.97
2018-09-23T15:43:59.500Z,16.17
2018-09-23T15:46:28.254Z,13.20
2018-09-23T15:48:56.795Z,14.40
2018-09-23T15:51:25.448Z,13.23
2018-09-23T15:53:54.251Z,11.87
2018-09-23T15:56:23.100Z,13.70
2018-09-23T15:58:51.858Z,12.43
2018-09-23T16:01:20.808Z,9.57
2018-09-23T16:03:49.400Z,13.57
2018-09-23T16:06:18.847Z,7.53
2018-09-23T16:08:47.582Z,8.23
2018-09-23T16:11:16.091Z,7.60
2018-09-23T16:13:44.686Z,8.33
2018-09-23T16:16:13.237Z,7.77
2018-09-23T16:18:41.916Z,6.57
2018-09-23T16:21:10.249Z,5.80
2018-09-23T16:23:38.751Z,8.43
2018-09-23T16:26:07.689Z,5.63
2018-09-23T16:28:36.486Z,5.77
2018-09-23T16:31:05.317Z,4.90
2018-09-23T16:33:33.957Z,5.80
2018-09-23T16:36:02.532Z,10.97
2018-09-23T16:38:31.358Z,8.67
2018-09-23T16:40:59.950Z,5.67
2018-09-23T16:43:29.150Z,8.07
2018-09-23T16:45:58.141Z,5.17
2018-09-23T16:48:26.684Z,8.57
2018-09-23T16:50:55.440Z,10.30
2018-09-23T16:53:24.196Z,11.90
2018-09-23T16:55:53.564Z,7.10
2018-09-23T16:58:22.839Z,5.10
2018-09-23T17:00:52.400Z,7.77
2018-09-23T17:03:20.967Z,7.90
2018-09-23T17:05:50.351Z,8.20
2018-09-23T17:08:19.245Z,11.57
2018-09-23T17:10:50.220Z,8.50
2018-09-23T17:13:19.263Z,6.63
2018-09-23T17:15:48.694Z,5.47
2018-09-23T17:18:17.176Z,7.47
2018-09-23T17:20:45.913Z,12.63
2018-09-23T17:23:14.607Z,5.33
2018-09-23T17:25:43.294Z,5.20
2018-09-23T17:28:11.839Z,7.47
2018-09-23T17:30:40.668Z,7.20
2018-09-23T17:33:11.847Z,3.43
2018-09-23T17:38:34.069Z,5.80
2018-09-23T17:41:02.585Z,7.33
2018-09-23T17:43:31.483Z,12.53
2018-09-23T17:46:00.455Z,6.00
2018-09-23T17:48:30.337Z,5.60
2018-09-23T17:50:58.871Z,6.77
2018-09-23T17:53:27.798Z,5.27
2018-09-23T17:55:57.610Z,7.67
2018-09-23T17:58:27.837Z,3.23
2018-09-23T18:00:56.630Z,4.37
2018-09-23T18:03:25.168Z,4.63
2018-09-23T18:05:54.105Z,3.50
2018-09-23T18:08:22.728Z,5.57
2018-09-23T18:10:52.124Z,6.93
2018-09-23T18:13:20.639Z,6.40
2018-09-23T18:15:49.402Z,4.27
2018-09-23T18:18:18.972Z,5.73
2018-09-23T18:20:48.799Z,7.57
2018-09-23T18:23:17.333Z,3.00
2018-09-23T18:25:46.349Z,3.70
2018-09-23T18:28:14.919Z,7.47
2018-09-23T18:30:43.655Z,6.33
2018-09-23T18:33:12.815Z,11.87
2018-09-23T18:35:41.274Z,5.07
2018-09-23T18:38:10.007Z,5.63
2018-09-23T18:40:39.137Z,8.30
2018-09-23T18:43:07.824Z,6.83
2018-09-23T18:45:36.753Z,6.83
2018-09-23T18:48:07.479Z,5.53
2018-09-23T18:50:36.683Z,9.80
2018-09-23T18:53:10.608Z,11.90
2018-09-23T18:55:41.533Z,8.23
2018-09-23T18:58:10.702Z,10.57
2018-09-23T19:00:39.776Z,7.40
2018-09-23T19:03:08.910Z,6.77
2018-09-23T19:05:37.523Z,11.13
2018-09-23T19:08:07.212Z,8.57
2018-09-23T19:10:36.422Z,6.40
2018-09-23T19:13:10.187Z,7.73
2018-09-23T19:15:38.599Z,9.17
2018-09-23T19:18:08.919Z,5.37
2018-09-23T19:20:50.535Z,8.30
2018-09-23T19:23:49.755Z,4.83
2018-09-23T19:26:18.270Z,5.77
2018-09-23T19:28:46.803Z,6.13
2018-09-23T19:31:15.312Z,8.57
2018-09-23T19:33:44.002Z,10.93
2018-09-23T19:36:12.575Z,5.33
2018-09-23T19:38:41.042Z,5.53
2018-09-23T19:41:10.091Z,9.07
2018-09-23T19:43:38.839Z,6.03
2018-09-23T19:46:07.679Z,6.93
2018-09-23T19:48:36.862Z,5.73
2018-09-23T19:51:06.164Z,5.67
2018-09-23T19:53:34.732Z,5.73
2018-09-23T19:56:03.382Z,7.80
2018-09-23T19:58:32.003Z,7.07
2018-09-23T20:01:00.643Z,7.50
2018-09-23T20:03:29.339Z,8.97
2018-09-23T20:05:58.023Z,4.83
2018-09-23T20:08:26.791Z,6.67
2018-09-23T20:10:55.379Z,8.60
2018-09-23T20:13:23.824Z,4.20
2018-09-23T20:15:52.456Z,6.33
2018-09-23T20:18:20.925Z,5.07
2018-09-23T20:20:49.471Z,6.97
2018-09-23T20:23:18.050Z,5.33
2018-09-23T20:25:47.249Z,5.77
2018-09-23T20:28:15.844Z,6.07
2018-09-23T20:30:44.454Z,6.27
2018-09-23T20:33:13.030Z,9.83
2018-09-23T20:35:41.755Z,4.10
2018-09-23T20:38:10.422Z,4.67
2018-09-23T20:40:39.867Z,5.27
2018-09-23T20:43:08.492Z,9.20
2018-09-23T20:45:37.278Z,8.23
2018-09-23T20:48:05.724Z,6.73
2018-09-23T20:50:34.227Z,8.20
2018-09-23T20:53:02.763Z,9.67
2018-09-23T20:55:31.410Z,7.80
2018-09-23T20:57:59.883Z,11.43
2018-09-23T21:00:28.581Z,10.77
2018-09-23T21:02:57.231Z,8.07
2018-09-23T21:05:25.878Z,12.97
2018-09-23T21:07:54.326Z,10.23
2018-09-23T21:10:22.932Z,10.43
2018-09-23T21:12:52.247Z,5.10
2018-09-23T21:15:20.895Z,11.43
2018-09-23T21:17:49.427Z,7.37
2018-09-23T21:20:18.789Z,7.13
2018-09-23T21:22:47.373Z,13.00
2018-09-23T21:25:15.877Z,8.67
2018-09-23T21:27:44.443Z,9.97
2018-09-23T21:30:13.101Z,7.83
2018-09-23T21:32:42.826Z,8.77
2018-09-23T21:35:11.343Z,5.37
2018-09-23T21:37:41.021Z,12.40
2018-09-23T21:40:09.527Z,8.37
2018-09-23T21:42:38.294Z,10.20
2018-09-23T21:45:06.904Z,6.50
2018-09-23T21:47:35.446Z,8.77
2018-09-23T21:50:04.041Z,10.40
2018-09-23T21:52:32.620Z,6.03
2018-09-23T21:57:43.771Z,7.80
2018-09-23T22:00:13.072Z,7.43
2018-09-23T22:02:41.543Z,5.77
2018-09-23T22:05:10.182Z,5.83
2018-09-23T22:07:38.715Z,9.33
2018-09-23T22:10:07.340Z,5.77
2018-09-23T22:12:35.893Z,7.20
2018-09-23T22:15:04.435Z,11.37
2018-09-23T22:17:32.959Z,5.17
2018-09-23T22:20:01.803Z,8.90
2018-09-23T22:22:30.155Z,6.50
2018-09-23T22:24:58.760Z,9.80
2018-09-23T22:27:27.266Z,4.67
2018-09-23T22:29:55.866Z,7.30
2018-09-23T22:32:24.431Z,9.07
2018-09-23T22:34:52.923Z,7.20
2018-09-23T22:37:21.554Z,9.43
2018-09-23T22:39:50.715Z,12.40
2018-09-23T22:42:19.245Z,10.73
2018-09-23T22:44:47.779Z,11.03
2018-09-23T22:47:16.639Z,10.57
2018-09-23T22:49:45.069Z,11.07
2018-09-23T22:52:13.496Z,8.90
2018-09-23T22:54:41.911Z,11.57
2018-09-23T22:57:10.340Z,8.33
2018-09-23T22:59:38.964Z,7.07
2018-09-23T23:02:07.627Z,13.33
2018-09-23T23:04:36.118Z,8.10
2018-09-23T23:07:04.690Z,9.10
2018-09-23T23:09:33.474Z,10.53
2018-09-23T23:12:01.992Z,7.17
2018-09-23T23:14:30.449Z,15.60
2018-09-23T23:16:59.045Z,11.00
2018-09-23T23:19:28.255Z,10.10
2018-09-23T23:21:57.655Z,11.97
2018-09-23T23:24:26.570Z,12.13
2018-09-23T23:26:56.068Z,6.93
2018-09-23T23:29:24.656Z,10.00
2018-09-23T23:31:53.559Z,9.97
2018-09-23T23:34:23.205Z,9.10
2018-09-23T23:37:01.910Z,5.03
2018-09-23T23:39:46.429Z,9.97
2018-09-23T23:42:15.397Z,3.53
2018-09-23T23:44:44.623Z,10.50
2018-09-23T23:47:13.098Z,8.70
2018-09-23T23:49:41.588Z,13.23
2018-09-23T23:52:10.025Z,10.67
2018-09-23T23:54:38.443Z,9.17
2018-09-23T23:57:07.409Z,7.07
2018-09-23T23:59:36.714Z,6.90
